createdAt,value
2022-09-11T00:02:24.363Z,6.97
2022-09-11T00:05:11.241Z,7.60
2022-09-11T00:07:58.197Z,7.63
2022-09-11T00:10:45.838Z,8.90
2022-09-11T00:13:34.447Z,7.83
2022-09-11T00:16:24.204Z,6.23
2022-09-11T00:19:13.683Z,8.20
2022-09-11T00:22:00.051Z,12.50
2022-09-11T00:24:46.677Z,7.63
2022-09-11T00:27:33.566Z,8.87
2022-09-11T00:30:21.645Z,10.07
2022-09-11T00:33:08.291Z,9.70
2022-09-11T00:35:58.461Z,13.63
2022-09-11T00:38:46.410Z,12.80
2022-09-11T00:41:36.319Z,10.83
2022-09-11T00:45:00.382Z,7.93
2022-09-11T00:47:50.669Z,7.67
2022-09-11T00:50:38.423Z,12.00
2022-09-11T00:53:28.008Z,8.40
2022-09-11T00:56:14.967Z,10.60
2022-09-11T00:59:04.860Z,12.47
2022-09-11T01:01:51.683Z,11.43
2022-09-11T01:04:39.984Z,10.17
2022-09-11T01:07:28.302Z,7.90
2022-09-11T01:10:17.332Z,8.33
2022-09-11T01:13:15.497Z,12.63
2022-09-11T01:16:10.762Z,9.03
2022-09-11T01:19:07.703Z,12.37
2022-09-11T01:22:31.737Z,20.63
2022-09-11T01:25:28.580Z,15.73
2022-09-11T01:28:21.927Z,8.93
2022-09-11T01:31:13.731Z,12.03
2022-09-11T01:34:06.856Z,15.03
2022-09-11T01:36:59.797Z,17.30
2022-09-11T01:39:53.270Z,16.67
2022-09-11T01:42:46.098Z,20.93
2022-09-11T01:45:37.376Z,14.77
2022-09-11T01:48:30.386Z,15.87
2022-09-11T01:51:22.325Z,16.57
2022-09-11T01:54:14.728Z,19.77
2022-09-11T01:57:07.067Z,21.37
2022-09-11T01:59:56.874Z,19.93
2022-09-11T02:02:50.903Z,20.23
2022-09-11T02:05:45.900Z,20.97
2022-09-11T02:08:45.313Z,24.17
2022-09-11T02:11:34.892Z,22.30
2022-09-11T02:14:29.735Z,24.70
2022-09-11T02:17:24.682Z,25.17
2022-09-11T02:20:13.608Z,32.87
2022-09-11T02:23:00.435Z,35.97
2022-09-11T02:25:48.251Z,26.90
2022-09-11T02:28:35.034Z,46.87
2022-09-11T02:31:22.900Z,24.53
2022-09-11T02:34:12.172Z,35.53
2022-09-11T02:37:18.061Z,41.93
2022-09-11T02:40:44.715Z,35.70
2022-09-11T02:43:44.395Z,72.83
2022-09-11T02:46:57.192Z,40.20
2022-09-11T02:49:56.741Z,34.30
2022-09-11T02:52:51.044Z,34.60
2022-09-11T02:55:54.262Z,42.57
2022-09-11T02:58:46.821Z,26.53
2022-09-11T03:01:47.961Z,34.00
2022-09-11T03:04:36.971Z,34.93
2022-09-11T03:07:25.597Z,43.87
2022-09-11T03:10:15.383Z,32.23
2022-09-11T03:13:13.737Z,26.10
2022-09-11T03:16:07.036Z,38.00
2022-09-11T03:18:54.107Z,22.60
2022-09-11T03:21:40.981Z,27.07
2022-09-11T03:24:27.360Z,29.07
2022-09-11T03:27:15.513Z,20.70
2022-09-11T03:30:02.294Z,28.07
2022-09-11T03:32:49.300Z,20.57
2022-09-11T03:35:36.150Z,23.10
2022-09-11T03:38:22.910Z,24.07
2022-09-11T03:41:10.890Z,27.30
2022-09-11T03:43:59.546Z,21.20
2022-09-11T03:46:46.091Z,23.33
2022-09-11T03:49:33.963Z,23.73
2022-09-11T03:52:20.640Z,23.20
2022-09-11T03:55:08.862Z,20.93
2022-09-11T03:58:21.424Z,22.33
2022-09-11T04:01:11.544Z,26.90
2022-09-11T04:03:59.658Z,24.33
2022-09-11T04:06:52.051Z,29.70
2022-09-11T04:09:38.787Z,25.23
2022-09-11T04:12:25.873Z,31.00
2022-09-11T04:15:12.621Z,48.87
2022-09-11T04:18:05.302Z,25.53
2022-09-11T04:20:53.387Z,28.83
2022-09-11T04:23:41.747Z,29.87
2022-09-11T04:26:29.818Z,28.60
2022-09-11T04:29:26.563Z,28.40
2022-09-11T04:32:15.192Z,21.93
2022-09-11T04:35:04.059Z,22.47
2022-09-11T04:37:56.463Z,30.73
2022-09-11T04:40:43.346Z,22.40
2022-09-11T04:43:31.691Z,22.27
2022-09-11T04:46:20.550Z,26.03
2022-09-11T04:49:08.348Z,25.27
2022-09-11T04:51:57.904Z,27.43
2022-09-11T04:54:46.280Z,26.57
2022-09-11T04:57:35.870Z,28.17
2022-09-11T05:00:25.161Z,32.50
2022-09-11T05:03:11.890Z,28.37
2022-09-11T05:05:58.612Z,26.70
2022-09-11T05:08:48.182Z,29.63
2022-09-11T05:11:38.350Z,26.97
2022-09-11T05:14:25.575Z,28.20
2022-09-11T05:17:13.569Z,31.17
2022-09-11T05:20:03.696Z,36.73
2022-09-11T05:22:59.535Z,35.13
2022-09-11T05:26:04.124Z,30.73
2022-09-11T05:29:07.794Z,32.93
2022-09-11T05:32:12.372Z,48.63
2022-09-11T05:35:16.013Z,34.30
2022-09-11T05:38:06.265Z,41.07
2022-09-11T05:40:57.785Z,35.63
2022-09-11T05:43:47.364Z,38.63
2022-09-11T05:46:42.334Z,36.20
2022-09-11T05:49:35.175Z,35.80
2022-09-11T05:52:25.463Z,34.33
2022-09-11T05:55:13.924Z,34.47
2022-09-11T05:58:03.827Z,33.87
2022-09-11T06:01:05.682Z,37.43
2022-09-11T06:03:56.656Z,35.57
2022-09-11T06:06:50.255Z,36.10
2022-09-11T06:09:47.428Z,30.23
2022-09-11T06:12:38.758Z,32.70
2022-09-11T06:15:45.671Z,35.60
2022-09-11T06:18:36.187Z,37.20
2022-09-11T06:21:31.647Z,42.43
2022-09-11T06:24:45.617Z,36.37
2022-09-11T06:27:34.913Z,35.57
2022-09-11T06:30:22.974Z,32.33
2022-09-11T06:33:13.111Z,40.37
2022-09-11T06:36:04.566Z,34.53
2022-09-11T06:38:57.083Z,35.03
2022-09-11T06:41:47.429Z,34.17
2022-09-11T06:44:36.338Z,33.07
2022-09-11T06:47:23.718Z,31.57
2022-09-11T06:50:14.591Z,34.07
2022-09-11T06:53:27.413Z,37.67
2022-09-11T06:56:16.787Z,33.53
2022-09-11T06:59:05.473Z,29.87
2022-09-11T07:01:53.140Z,27.90
2022-09-11T07:04:40.703Z,33.47
2022-09-11T07:07:28.740Z,33.27
2022-09-11T07:10:15.672Z,33.43
2022-09-11T07:13:02.309Z,30.10
2022-09-11T07:15:50.116Z,30.93
2022-09-11T07:18:39.635Z,27.87
2022-09-11T07:21:30.324Z,29.77
2022-09-11T07:24:22.018Z,25.73
2022-09-11T07:27:09.068Z,26.13
2022-09-11T07:29:56.689Z,27.80
2022-09-11T07:32:49.690Z,25.97
2022-09-11T07:35:38.201Z,29.83
2022-09-11T07:38:25.019Z,30.07
2022-09-11T07:41:14.895Z,27.97
2022-09-11T07:44:03.071Z,26.80
2022-09-11T07:46:51.594Z,33.53
2022-09-11T07:49:38.348Z,26.07
2022-09-11T07:52:25.729Z,30.77
2022-09-11T07:55:17.163Z,33.13
2022-09-11T07:58:05.906Z,31.70
2022-09-11T08:01:00.672Z,29.23
2022-09-11T08:03:49.440Z,29.20
2022-09-11T08:06:37.834Z,32.17
2022-09-11T08:09:32.887Z,27.83
2022-09-11T08:12:23.995Z,28.70
2022-09-11T08:15:12.210Z,29.40
2022-09-11T08:18:00.975Z,28.97
2022-09-11T08:20:51.606Z,24.33
2022-09-11T08:23:42.702Z,28.33
2022-09-11T08:26:31.892Z,26.93
2022-09-11T08:29:19.214Z,26.80
2022-09-11T08:32:09.036Z,20.20
2022-09-11T08:34:55.454Z,22.30
2022-09-11T08:37:43.343Z,23.00
2022-09-11T08:40:31.854Z,18.03
2022-09-11T08:43:23.922Z,18.97
2022-09-11T08:46:12.221Z,17.07
2022-09-11T08:49:07.624Z,17.70
2022-09-11T08:51:57.844Z,16.03
2022-09-11T08:54:47.939Z,17.33
2022-09-11T08:57:46.196Z,15.23
2022-09-11T09:00:43.181Z,14.53
2022-09-11T09:03:56.174Z,15.73
2022-09-11T09:06:55.555Z,15.10
2022-09-11T09:09:56.843Z,22.10
2022-09-11T09:12:54.108Z,21.70
2022-09-11T09:15:49.082Z,17.10
2022-09-11T09:18:41.976Z,14.60
2022-09-11T09:21:34.956Z,15.50
2022-09-11T09:24:24.235Z,14.30
2022-09-11T09:27:20.533Z,16.20
2022-09-11T09:30:15.363Z,17.03
2022-09-11T09:33:11.406Z,14.60
2022-09-11T09:36:13.437Z,16.50
2022-09-11T09:39:00.521Z,16.10
2022-09-11T09:42:25.876Z,14.33
2022-09-11T09:45:38.402Z,10.03
2022-09-11T09:48:25.711Z,12.33
2022-09-11T09:51:14.897Z,9.97
2022-09-11T09:54:04.311Z,11.17
2022-09-11T09:56:58.140Z,8.40
2022-09-11T09:59:51.863Z,7.33
2022-09-11T10:02:40.701Z,8.13
2022-09-11T10:05:31.273Z,6.87
2022-09-11T10:08:34.060Z,7.93
2022-09-11T10:11:30.039Z,8.57
2022-09-11T10:14:49.386Z,7.23
2022-09-11T10:17:35.298Z,5.73
2022-09-11T10:20:27.784Z,5.70
2022-09-11T10:23:25.725Z,4.50
2022-09-11T10:26:17.919Z,7.23
2022-09-11T10:29:10.011Z,6.50
2022-09-11T10:31:59.339Z,5.80
2022-09-11T10:34:48.793Z,5.87
2022-09-11T10:37:35.404Z,5.40
2022-09-11T10:40:24.563Z,6.23
2022-09-11T10:43:25.587Z,6.03
2022-09-11T10:46:28.357Z,11.17
2022-09-11T10:49:20.484Z,6.90
2022-09-11T10:52:19.096Z,8.37
2022-09-11T10:55:15.344Z,6.87
2022-09-11T10:58:08.669Z,7.23
2022-09-11T11:00:55.579Z,6.70
2022-09-11T11:03:42.232Z,5.17
2022-09-11T11:06:51.002Z,8.87
2022-09-11T11:09:57.504Z,6.17
2022-09-11T11:12:55.117Z,7.37
2022-09-11T11:15:58.479Z,6.57
2022-09-11T11:19:06.808Z,9.03
2022-09-11T11:22:07.050Z,5.40
2022-09-11T11:25:08.505Z,4.03
2022-09-11T11:28:28.330Z,5.03
2022-09-11T11:31:35.775Z,7.90
2022-09-11T11:34:35.448Z,7.47
2022-09-11T11:37:28.038Z,4.43
2022-09-11T11:40:23.664Z,5.77
2022-09-11T11:43:13.352Z,6.87
2022-09-11T11:46:04.689Z,8.27
2022-09-11T11:48:59.181Z,6.07
2022-09-11T11:51:52.445Z,7.60
2022-09-11T11:54:44.781Z,5.83
2022-09-11T11:57:41.717Z,5.43
2022-09-11T12:00:30.263Z,5.17
2022-09-11T12:03:23.863Z,8.20
2022-09-11T12:06:11.717Z,5.83
2022-09-11T12:08:58.873Z,5.60
2022-09-11T12:11:49.001Z,8.53
2022-09-11T12:14:37.453Z,5.93
2022-09-11T12:17:28.269Z,6.00
2022-09-11T12:20:29.968Z,7.30
2022-09-11T12:23:56.096Z,5.50
2022-09-11T12:26:43.169Z,6.77
2022-09-11T12:29:58.009Z,9.33
2022-09-11T12:32:47.031Z,9.77
2022-09-11T12:35:42.020Z,6.60
2022-09-11T12:38:38.165Z,7.37
2022-09-11T12:41:29.708Z,9.10
2022-09-11T12:44:31.843Z,8.23
2022-09-11T12:47:23.508Z,6.40
2022-09-11T12:50:19.596Z,5.27
2022-09-11T12:53:13.554Z,12.20
2022-09-11T12:56:02.114Z,7.20
2022-09-11T12:58:54.710Z,5.93
2022-09-11T13:01:44.925Z,5.87
2022-09-11T13:04:34.981Z,6.47
2022-09-11T13:07:29.397Z,6.63
2022-09-11T13:10:30.463Z,7.27
2022-09-11T13:13:45.027Z,5.87
2022-09-11T13:16:34.903Z,6.07
2022-09-11T13:19:21.938Z,5.00
2022-09-11T13:22:23.655Z,5.17
2022-09-11T13:25:14.495Z,5.70
2022-09-11T13:28:02.597Z,6.93
2022-09-11T13:30:55.696Z,3.37
2022-09-11T13:33:43.176Z,4.27
2022-09-11T13:36:31.674Z,13.30
2022-09-11T13:39:21.235Z,17.07
2022-09-11T13:42:16.148Z,4.43
2022-09-11T13:45:05.202Z,4.23
2022-09-11T13:47:54.772Z,6.07
2022-09-11T13:50:41.865Z,3.67
2022-09-11T13:53:28.749Z,3.43
2022-09-11T13:56:22.009Z,3.50
2022-09-11T13:59:38.482Z,3.60
2022-09-11T14:02:50.946Z,4.70
2022-09-11T14:05:37.924Z,3.17
2022-09-11T14:08:36.910Z,4.57
2022-09-11T14:11:29.526Z,4.10
2022-09-11T14:14:23.756Z,5.37
2022-09-11T14:17:13.875Z,5.07
2022-09-11T14:20:03.906Z,5.67
2022-09-11T14:22:56.306Z,7.67
2022-09-11T14:26:05.745Z,6.50
2022-09-11T14:29:03.773Z,5.87
2022-09-11T14:31:51.954Z,3.97
2022-09-11T14:34:38.746Z,6.27
2022-09-11T14:37:29.218Z,8.17
2022-09-11T14:40:18.216Z,5.70
2022-09-11T14:43:06.659Z,6.57
2022-09-11T14:45:55.412Z,6.07
2022-09-11T14:48:44.132Z,4.03
2022-09-11T14:51:30.834Z,7.33
2022-09-11T14:54:17.662Z,8.27
2022-09-11T14:57:04.422Z,7.23
2022-09-11T14:59:52.451Z,6.47
2022-09-11T15:02:40.475Z,6.67
2022-09-11T15:05:27.442Z,8.40
2022-09-11T15:08:14.149Z,6.37
2022-09-11T15:11:00.602Z,5.97
2022-09-11T15:14:10.821Z,8.33
2022-09-11T15:16:57.628Z,11.33
2022-09-11T15:19:47.614Z,5.50
2022-09-11T15:22:35.461Z,7.97
2022-09-11T15:25:23.962Z,9.97
2022-09-11T15:28:11.097Z,6.77
2022-09-11T15:30:58.923Z,5.17
2022-09-11T15:33:47.164Z,7.77
2022-09-11T15:36:38.229Z,5.87
2022-09-11T15:39:24.971Z,6.10
2022-09-11T15:42:11.640Z,7.57
2022-09-11T15:44:58.189Z,7.93
2022-09-11T15:47:45.574Z,7.10
2022-09-11T15:50:32.526Z,10.07
2022-09-11T15:53:21.674Z,9.50
2022-09-11T15:56:10.225Z,5.33
2022-09-11T15:58:58.897Z,5.77
2022-09-11T16:01:46.550Z,5.23
2022-09-11T16:04:33.746Z,5.43
2022-09-11T16:07:20.647Z,9.90
2022-09-11T16:10:09.518Z,5.13
2022-09-11T16:12:58.835Z,8.60
2022-09-11T16:15:46.083Z,6.83
2022-09-11T16:18:37.553Z,5.57
2022-09-11T16:21:24.394Z,5.80
2022-09-11T16:24:14.780Z,4.60
2022-09-11T16:27:02.834Z,6.70
2022-09-11T16:32:56.776Z,6.73
2022-09-11T16:35:43.681Z,4.77
2022-09-11T16:38:30.893Z,4.50
2022-09-11T16:41:19.489Z,5.63
2022-09-11T16:44:09.048Z,4.90
2022-09-11T16:46:55.697Z,5.37
2022-09-11T16:50:03.279Z,4.40
2022-09-11T16:52:48.824Z,5.47
2022-09-11T16:55:35.690Z,7.13
2022-09-11T16:58:22.967Z,5.43
2022-09-11T17:01:14.724Z,6.23
2022-09-11T17:04:01.132Z,6.80
2022-09-11T17:06:48.009Z,8.00
2022-09-11T17:09:34.917Z,10.30
2022-09-11T17:12:22.398Z,9.00
2022-09-11T17:15:10.518Z,7.70
2022-09-11T17:17:58.394Z,5.50
2022-09-11T17:20:45.355Z,5.67
2022-09-11T17:23:32.250Z,8.67
2022-09-11T17:26:19.393Z,6.13
2022-09-11T17:29:07.731Z,6.77
2022-09-11T17:32:16.838Z,5.47
2022-09-11T17:35:03.305Z,10.73
2022-09-11T17:37:50.794Z,7.93
2022-09-11T17:40:39.087Z,12.93
2022-09-11T17:43:26.448Z,7.27
2022-09-11T17:46:15.195Z,8.03
2022-09-11T17:49:02.130Z,11.50
2022-09-11T17:51:50.165Z,5.60
2022-09-11T17:54:36.854Z,10.00
2022-09-11T17:57:23.770Z,9.23
2022-09-11T18:00:12.199Z,7.40
2022-09-11T18:02:59.689Z,9.77
2022-09-11T18:05:46.356Z,7.50
2022-09-11T18:08:34.596Z,8.63
2022-09-11T18:11:21.283Z,5.77
2022-09-11T18:14:09.237Z,6.83
2022-09-11T18:16:55.796Z,8.63
2022-09-11T18:19:42.558Z,5.47
2022-09-11T18:22:29.926Z,8.87
2022-09-11T18:25:21.831Z,8.63
2022-09-11T18:28:09.900Z,8.43
2022-09-11T18:31:02.647Z,5.13
2022-09-11T18:33:54.735Z,6.40
2022-09-11T18:36:42.463Z,8.30
2022-09-11T18:39:29.271Z,6.07
2022-09-11T18:42:18.165Z,7.70
2022-09-11T18:45:05.450Z,5.10
2022-09-11T18:47:54.614Z,11.00
2022-09-11T18:50:41.362Z,6.67
2022-09-11T18:53:28.125Z,9.77
2022-09-11T18:56:14.808Z,7.43
2022-09-11T18:59:03.471Z,5.70
2022-09-11T19:01:50.490Z,6.20
2022-09-11T19:04:37.153Z,7.13
2022-09-11T19:07:23.915Z,8.60
2022-09-11T19:10:12.528Z,14.43
2022-09-11T19:13:00.211Z,5.83
2022-09-11T19:15:56.300Z,9.50
2022-09-11T19:18:42.768Z,10.13
2022-09-11T19:21:30.073Z,10.80
2022-09-11T19:24:17.065Z,4.47
2022-09-11T19:27:03.756Z,7.13
2022-09-11T19:29:50.407Z,8.63
2022-09-11T19:32:38.518Z,7.03
2022-09-11T19:35:25.657Z,7.77
2022-09-11T19:38:13.195Z,5.57
2022-09-11T19:41:00.867Z,6.93
2022-09-11T19:43:48.065Z,7.27
2022-09-11T19:46:37.477Z,6.60
2022-09-11T19:49:25.598Z,9.60
2022-09-11T19:52:13.864Z,8.17
2022-09-11T19:55:00.600Z,5.23
2022-09-11T19:57:47.534Z,6.10
2022-09-11T20:00:37.768Z,6.83
2022-09-11T20:03:24.640Z,12.30
2022-09-11T20:06:14.038Z,7.87
2022-09-11T20:12:09.203Z,6.70
2022-09-11T20:14:55.792Z,6.27
2022-09-11T20:17:44.586Z,9.70
2022-09-11T20:20:31.614Z,7.50
2022-09-11T20:23:19.589Z,8.60
2022-09-11T20:26:16.263Z,6.57
2022-09-11T20:29:06.910Z,7.13
2022-09-11T20:31:55.192Z,5.33
2022-09-11T20:34:45.402Z,7.80
2022-09-11T20:37:34.130Z,4.37
2022-09-11T20:40:22.180Z,4.00
2022-09-11T20:43:09.010Z,7.63
2022-09-11T20:45:55.872Z,6.80
2022-09-11T20:48:42.740Z,5.37
2022-09-11T20:51:29.489Z,4.67
2022-09-11T20:54:16.552Z,9.37
2022-09-11T20:57:04.624Z,5.00
2022-09-11T20:59:51.363Z,5.27
2022-09-11T21:02:38.193Z,6.20
2022-09-11T21:05:24.823Z,7.77
2022-09-11T21:08:11.580Z,4.57
2022-09-11T21:11:02.750Z,4.13
2022-09-11T21:13:50.697Z,7.37
2022-09-11T21:16:37.371Z,5.30
2022-09-11T21:19:24.074Z,5.30
2022-09-11T21:22:10.899Z,6.13
2022-09-11T21:24:57.574Z,6.33
2022-09-11T21:27:44.244Z,7.27
2022-09-11T21:30:32.496Z,6.33
2022-09-11T21:33:19.829Z,7.27
2022-09-11T21:36:07.013Z,6.70
2022-09-11T21:38:53.819Z,8.27
2022-09-11T21:41:40.669Z,37.77
2022-09-11T21:44:27.294Z,4.40
2022-09-11T21:47:16.229Z,5.47
2022-09-11T21:50:07.195Z,11.70
2022-09-11T21:52:54.672Z,4.23
2022-09-11T21:55:44.249Z,4.20
2022-09-11T21:58:31.149Z,10.37
2022-09-11T22:01:17.537Z,5.77
2022-09-11T22:04:05.769Z,4.60
2022-09-11T22:06:52.393Z,8.90
2022-09-11T22:09:39.166Z,6.10
2022-09-11T22:12:26.266Z,6.97
2022-09-11T22:15:13.048Z,7.60
2022-09-11T22:17:59.810Z,3.87
2022-09-11T22:20:47.935Z,8.07
2022-09-11T22:23:35.354Z,8.27
2022-09-11T22:26:24.569Z,4.37
2022-09-11T22:29:11.149Z,5.20
2022-09-11T22:31:58.047Z,3.63
2022-09-11T22:34:44.727Z,3.30
2022-09-11T22:37:32.920Z,4.40
2022-09-11T22:40:19.750Z,5.07
2022-09-11T22:43:06.535Z,6.87
2022-09-11T22:45:53.850Z,3.33
2022-09-11T22:48:41.157Z,3.17
2022-09-11T22:51:28.102Z,5.07
2022-09-11T22:54:16.763Z,7.53
2022-09-11T22:57:03.262Z,4.33
2022-09-11T22:59:49.994Z,6.37
2022-09-11T23:02:37.308Z,10.63
2022-09-11T23:05:49.875Z,5.87
2022-09-11T23:08:39.505Z,4.40
2022-09-11T23:11:29.216Z,9.90
2022-09-11T23:14:15.950Z,7.20
2022-09-11T23:17:02.481Z,6.10
2022-09-11T23:19:49.291Z,5.53
2022-09-11T23:22:36.194Z,3.97
2022-09-11T23:25:25.219Z,6.17
2022-09-11T23:28:13.180Z,5.73
2022-09-11T23:30:59.910Z,6.50
2022-09-11T23:33:47.058Z,8.83
2022-09-11T23:36:34.855Z,7.70
2022-09-11T23:39:21.346Z,5.43
2022-09-11T23:42:08.053Z,10.83
2022-09-11T23:44:56.214Z,5.10
2022-09-11T23:47:43.280Z,3.30
2022-09-11T23:50:30.150Z,6.70
2022-09-11T23:53:16.902Z,5.93
2022-09-11T23:56:04.233Z,3.43
2022-09-11T23:58:51.612Z,3.37
